Startpagina
METAR-TAF:

METAR-TAF

Vliegvelden :

Aeropuerto de Valladolid

Valladolid, Spanje

breedte: 41-43N, lengte: 004-51W, hoogte: 849 m

Actueel weer

Dit bericht is 27 minuten geleden gemaakt, om 20:00 UTC
Wind 2 kt uit het noordwesten
Temperatuur 9°C
Vochtigheid 53%
Druk 1032 hPa
Zicht 10 km of meer
geen wolken onder 1500 m en geen cumulonimbus

METAR: LEVD 232000Z 32002KT CAVOK 09/M00 Q1032

Tijdstip: 21:27 (20:27 UTC)

Verwachting

Dit bericht is 3 uur en het 27 minuten geleden gemaakt, om 17:00 UTC
Verwachting geldig van 23 om 18 UTC tot 24 om 18 UTC
Wind 5 kt uit variabele richting
Zicht 10 km of meer
geen wolken onder 1500 m en geen cumulonimbus
Kans 30% :
Tijdelijke
van 23 om 19 UTC tot 23 om 22 UTC
Wind 10 kt uit het noordnoordoosten
Kans 40% :
Tijdelijke
van 24 om 14 UTC tot 24 om 18 UTC
Wind 10 kt uit het westen

TAF: LEVD 231700Z 2318/2418 VRB05KT CAVOK TX19/2416Z TNM01/2407Z PROB30 TEMPO 2319/2322 03010KT PROB40 TEMPO 2414/2418 27010KT

Waarnemingen en weersverwachtingen van meer dan 4000 vliegvelden (METAR en TAF).

De beschikbare stations zijn de gele en rode punten op de kaart.

Ga met uw muis naar het station om de naam te zien.

Klik dan om waarnemingen en weersverwachtingen te zien.

kaart wijzigen: klik op de groene knoppen met een zwart kruis om in te zoomen, op de groene knop met een streepje om uit te zoomen of op de groene pijlen voor aangrenzende kaarten.


METAR-TAF: